Time;durP1;ratioP1;P1;durP2;ratioP2;P2;SDS_P1;SDS_P2;PMS_P1;PMS_P2;Temp;Humidity;BMP_temperature;BMP_pressure;BME280_temperature;BME280_humidity;BME280_pressure;Samples;Min_cycle;Max_cycle;Signal;HPM_P1;HPM_P2
2021/01/07 00:13:17;;;;;;;43.90;14.87;;;;;;;;;;4936781;29;20258;-90
2021/01/07 00:31:12;;;;;;;97.50;19.15;;;;;;;;;;5006283;28;20364;-90
2021/01/07 00:33:57;;;;;;;103.17;18.80;;;;;;;;;;4991880;28;20049;-91
2021/01/07 00:55:04;;;;;;;26.70;12.93;;;;;;;;;;5008727;28;20259;-85
2021/01/07 00:57:33;;;;;;;23.57;12.70;;;;;;;;;;5012295;28;20284;-86
2021/01/07 01:00:00;;;;;;;24.63;13.70;;;;;;;;;;5012361;28;20816;-85
2021/01/07 01:02:26;;;;;;;25.53;12.27;;;;;;;;;;4981105;28;20281;-86
2021/01/07 01:04:52;;;;;;;23.27;12.20;;;;;;;;;;4987832;28;20281;-86
2021/01/07 01:07:18;;;;;;;22.70;12.43;;;;;;;;;;4993944;28;20805;-86
2021/01/07 01:09:44;;;;;;;26.03;13.57;;;;;;;;;;4980132;28;20277;-86
2021/01/07 01:12:10;;;;;;;20.00;11.30;;;;;;;;;;4983019;28;20338;-87
2021/01/07 01:14:37;;;;;;;21.43;12.67;;;;;;;;;;4992154;28;20292;-86
2021/01/07 01:17:04;;;;;;;20.03;11.07;;;;;;;;;;5010226;28;20706;-86
2021/01/07 01:19:32;;;;;;;21.73;11.70;;;;;;;;;;5008642;28;20276;-87
2021/01/07 01:21:58;;;;;;;26.23;13.00;;;;;;;;;;5010719;28;20326;-87
2021/01/07 01:24:25;;;;;;;23.77;12.07;;;;;;;;;;5003662;28;20275;-87
2021/01/07 01:26:57;;;;;;;22.97;12.80;;;;;;;;;;5009934;28;20303;-87
2021/01/07 01:29:24;;;;;;;20.83;11.68;;;;;;;;;;4973102;28;20353;-87
2021/01/07 01:31:50;;;;;;;21.30;11.77;;;;;;;;;;4989967;28;20458;-87
2021/01/07 01:34:17;;;;;;;25.30;12.93;;;;;;;;;;4993095;28;20694;-86
2021/01/07 01:36:43;;;;;;;20.70;10.10;;;;;;;;;;4991941;28;20343;-86
2021/01/07 01:39:09;;;;;;;26.43;12.33;;;;;;;;;;5001389;28;20268;-86
2021/01/07 01:41:42;;;;;;;25.73;12.03;;;;;;;;;;4999712;28;20281;-86
2021/01/07 01:44:09;;;;;;;24.77;11.77;;;;;;;;;;5004634;28;20269;-86
2021/01/07 01:46:35;;;;;;;28.30;12.97;;;;;;;;;;4997357;28;20034;-86
2021/01/07 01:49:02;;;;;;;25.97;12.83;;;;;;;;;;5015937;28;20740;-86
2021/01/07 01:51:32;;;;;;;24.93;12.37;;;;;;;;;;5002689;28;20276;-87
2021/01/07 01:53:58;;;;;;;27.80;12.77;;;;;;;;;;4995547;28;20275;-87
2021/01/07 01:56:24;;;;;;;28.37;14.00;;;;;;;;;;4997998;28;20287;-87
2021/01/07 01:58:50;;;;;;;48.60;11.67;;;;;;;;;;5014277;28;20379;-86
2021/01/07 02:01:17;;;;;;;31.00;14.07;;;;;;;;;;4999527;28;20292;-86
2021/01/07 02:03:43;;;;;;;33.50;14.10;;;;;;;;;;5000472;28;20275;-87
2021/01/07 02:06:13;;;;;;;35.97;15.70;;;;;;;;;;5014343;28;20257;-87
2021/01/07 02:08:40;;;;;;;31.17;15.10;;;;;;;;;;5010096;28;20396;-86
2021/01/07 02:11:06;;;;;;;31.70;14.17;;;;;;;;;;4976816;28;20277;-87
2021/01/07 02:13:32;;;;;;;34.23;15.33;;;;;;;;;;4982540;28;20363;-86
2021/01/07 02:15:58;;;;;;;34.57;16.17;;;;;;;;;;5015238;28;20267;-86
2021/01/07 02:18:24;;;;;;;36.20;16.60;;;;;;;;;;5005594;28;20272;-86
2021/01/07 02:20:51;;;;;;;34.90;16.23;;;;;;;;;;4995263;28;20261;-86
2021/01/07 02:23:17;;;;;;;31.10;14.83;;;;;;;;;;4995809;28;20769;-85
2021/01/07 02:25:43;;;;;;;32.90;14.87;;;;;;;;;;4995153;28;20299;-86
2021/01/07 02:28:09;;;;;;;32.17;16.87;;;;;;;;;;4995295;28;20265;-85
2021/01/07 02:30:36;;;;;;;29.57;14.83;;;;;;;;;;4982160;28;20332;-86
2021/01/07 02:33:02;;;;;;;28.60;14.17;;;;;;;;;;4988701;28;20281;-86
2021/01/07 02:35:29;;;;;;;29.97;14.80;;;;;;;;;;4975700;28;20274;-86
2021/01/07 02:37:55;;;;;;;28.40;14.53;;;;;;;;;;4975284;28;20340;-86
2021/01/07 02:40:21;;;;;;;30.87;14.90;;;;;;;;;;4993156;28;20275;-86
2021/01/07 02:42:47;;;;;;;27.43;15.13;;;;;;;;;;4962272;28;20332;-85
2021/01/07 02:45:14;;;;;;;30.10;15.33;;;;;;;;;;4956495;28;20263;-86
2021/01/07 02:47:40;;;;;;;30.13;15.03;;;;;;;;;;4978736;28;20354;-86
2021/01/07 02:50:07;;;;;;;29.47;16.03;;;;;;;;;;4993642;28;20277;-86
2021/01/07 02:52:33;;;;;;;30.70;14.63;;;;;;;;;;4972422;28;20290;-86
2021/01/07 02:54:59;;;;;;;27.47;13.53;;;;;;;;;;4974930;28;20286;-87
2021/01/07 02:57:25;;;;;;;29.90;15.57;;;;;;;;;;4974937;28;20638;-86
2021/01/07 02:59:54;;;;;;;30.00;15.23;;;;;;;;;;4975437;28;20694;-87
2021/01/07 03:02:20;;;;;;;25.37;14.27;;;;;;;;;;4977201;28;20288;-86
2021/01/07 03:04:46;;;;;;;31.07;14.27;;;;;;;;;;4977303;28;20284;-86
2021/01/07 03:07:12;;;;;;;26.87;14.60;;;;;;;;;;4976516;28;20281;-86
2021/01/07 03:09:38;;;;;;;26.17;14.33;;;;;;;;;;4977798;28;20274;-86
2021/01/07 03:12:14;;;;;;;25.03;13.10;;;;;;;;;;4957733;28;20267;-86
2021/01/07 03:14:40;;;;;;;27.13;14.50;;;;;;;;;;4974561;28;20289;-86
2021/01/07 03:17:06;;;;;;;23.33;13.33;;;;;;;;;;4973658;28;20597;-86
2021/01/07 03:19:33;;;;;;;28.00;15.33;;;;;;;;;;4980711;28;20360;-86
2021/01/07 03:21:59;;;;;;;25.97;14.33;;;;;;;;;;4973589;28;20381;-87
2021/01/07 03:24:25;;;;;;;23.70;14.53;;;;;;;;;;4990067;28;20277;-87
2021/01/07 03:26:52;;;;;;;26.70;14.53;;;;;;;;;;4975937;28;20319;-86
2021/01/07 03:29:18;;;;;;;26.00;14.87;;;;;;;;;;4980934;28;20302;-87
2021/01/07 03:31:44;;;;;;;23.90;13.73;;;;;;;;;;4972601;28;20361;-87
2021/01/07 03:34:10;;;;;;;24.47;13.87;;;;;;;;;;4974076;28;20752;-86
2021/01/07 03:36:36;;;;;;;25.17;14.13;;;;;;;;;;4973065;28;20274;-86
2021/01/07 03:39:03;;;;;;;22.83;13.53;;;;;;;;;;4987192;28;20320;-87
2021/01/07 03:41:29;;;;;;;27.77;14.57;;;;;;;;;;4995772;28;20734;-86
2021/01/07 03:43:55;;;;;;;28.20;15.00;;;;;;;;;;4996389;28;20284;-86
2021/01/07 03:46:21;;;;;;;26.87;15.60;;;;;;;;;;4996010;28;20261;-86
2021/01/07 03:48:47;;;;;;;26.53;14.80;;;;;;;;;;4993814;28;20337;-85
2021/01/07 03:51:14;;;;;;;27.97;15.03;;;;;;;;;;4973537;28;20285;-86
2021/01/07 03:53:40;;;;;;;26.70;14.93;;;;;;;;;;4981751;28;20391;-86
2021/01/07 03:56:06;;;;;;;27.03;14.73;;;;;;;;;;4975796;28;20344;-87
2021/01/07 03:58:34;;;;;;;25.40;13.83;;;;;;;;;;4988842;28;20363;-86
2021/01/07 04:01:00;;;;;;;27.50;15.57;;;;;;;;;;4976417;28;20750;-87
2021/01/07 04:03:27;;;;;;;30.33;16.13;;;;;;;;;;4976012;28;20778;-90
2021/01/07 04:05:53;;;;;;;26.57;15.17;;;;;;;;;;4968064;28;20274;-87
2021/01/07 04:08:19;;;;;;;27.40;16.07;;;;;;;;;;4976542;28;20273;-86
2021/01/07 04:10:45;;;;;;;29.43;16.60;;;;;;;;;;4973873;28;20356;-86
2021/01/07 04:13:11;;;;;;;29.13;16.47;;;;;;;;;;4969689;28;20270;-86
2021/01/07 04:15:37;;;;;;;29.00;15.23;;;;;;;;;;4984389;28;20274;-86
2021/01/07 04:18:04;;;;;;;30.27;16.37;;;;;;;;;;4973625;28;20352;-86
2021/01/07 04:20:30;;;;;;;29.73;16.50;;;;;;;;;;4990089;28;20323;-86
2021/01/07 04:22:56;;;;;;;29.03;16.10;;;;;;;;;;4972053;28;20296;-86
2021/01/07 04:25:24;;;;;;;30.53;16.80;;;;;;;;;;4969103;28;20294;-85
2021/01/07 04:27:50;;;;;;;33.17;17.73;;;;;;;;;;4970084;28;20284;-86
2021/01/07 04:30:16;;;;;;;35.13;19.47;;;;;;;;;;4987739;28;20274;-86
2021/01/07 04:32:43;;;;;;;37.63;19.70;;;;;;;;;;4974951;28;20848;-86
2021/01/07 04:35:09;;;;;;;39.77;20.73;;;;;;;;;;4974480;28;20947;-87
2021/01/07 04:37:35;;;;;;;40.70;22.27;;;;;;;;;;4973551;28;20276;-86
2021/01/07 04:40:01;;;;;;;43.50;22.50;;;;;;;;;;4988948;28;20724;-86
2021/01/07 04:42:30;;;;;;;44.83;23.60;;;;;;;;;;4993282;28;20288;-86
2021/01/07 04:44:57;;;;;;;45.37;23.50;;;;;;;;;;4969164;28;20766;-87
2021/01/07 04:47:24;;;;;;;41.80;23.13;;;;;;;;;;4973776;28;20265;-87
2021/01/07 04:49:51;;;;;;;48.27;22.90;;;;;;;;;;4973972;28;20285;-86
2021/01/07 04:52:17;;;;;;;43.00;24.17;;;;;;;;;;4972995;28;20273;-88
2021/01/07 04:54:43;;;;;;;40.27;22.67;;;;;;;;;;4963326;28;20296;-88
2021/01/07 04:57:10;;;;;;;42.20;22.27;;;;;;;;;;4982834;28;20336;-89
2021/01/07 04:59:36;;;;;;;40.97;23.00;;;;;;;;;;4991315;28;20501;-87
2021/01/07 05:02:05;;;;;;;40.23;22.17;;;;;;;;;;4992384;28;20281;-87
2021/01/07 05:04:31;;;;;;;40.77;22.87;;;;;;;;;;4983931;28;20305;-87
2021/01/07 05:07:00;;;;;;;36.70;20.10;;;;;;;;;;4973854;28;20351;-87
2021/01/07 05:09:26;;;;;;;40.17;22.20;;;;;;;;;;4979027;28;20573;-86
2021/01/07 05:12:03;;;;;;;36.57;22.43;;;;;;;;;;4955972;28;20270;-88
2021/01/07 05:14:29;;;;;;;38.80;21.17;;;;;;;;;;4963559;28;20268;-88
2021/01/07 05:16:55;;;;;;;41.53;23.47;;;;;;;;;;4996721;28;20293;-87
2021/01/07 05:19:21;;;;;;;36.83;20.93;;;;;;;;;;4984718;28;20325;-88
2021/01/07 05:21:47;;;;;;;38.97;22.23;;;;;;;;;;4958395;28;20329;-88
2021/01/07 05:24:13;;;;;;;40.57;20.90;;;;;;;;;;4969413;28;20281;-88
2021/01/07 05:26:41;;;;;;;38.27;20.20;;;;;;;;;;4977618;28;20316;-88
2021/01/07 05:29:07;;;;;;;35.10;20.17;;;;;;;;;;4974862;28;20259;-87
2021/01/07 05:31:33;;;;;;;38.33;20.83;;;;;;;;;;4974422;28;20369;-87
2021/01/07 05:34:00;;;;;;;36.47;21.37;;;;;;;;;;4974183;28;20259;-87
2021/01/07 05:36:30;;;;;;;36.70;21.17;;;;;;;;;;4975027;28;20285;-87
2021/01/07 05:39:07;;;;;;;41.20;24.00;;;;;;;;;;4977939;28;20288;-87
2021/01/07 05:41:36;;;;;;;49.97;27.17;;;;;;;;;;4992626;28;20277;-88
2021/01/07 05:44:08;;;;;;;42.27;24.63;;;;;;;;;;4994632;28;20261;-88
2021/01/07 05:46:35;;;;;;;36.10;21.70;;;;;;;;;;4977815;28;20269;-88
2021/01/07 05:49:01;;;;;;;36.37;21.57;;;;;;;;;;4977873;28;20280;-88
2021/01/07 05:51:28;;;;;;;28.07;17.73;;;;;;;;;;4964712;28;20285;-88
2021/01/07 05:53:55;;;;;;;32.77;18.87;;;;;;;;;;4985169;28;20289;-88
2021/01/07 05:56:22;;;;;;;33.43;19.47;;;;;;;;;;4997294;28;20272;-87
2021/01/07 05:58:49;;;;;;;28.97;17.23;;;;;;;;;;5000151;28;20269;-88
2021/01/07 06:01:16;;;;;;;26.83;16.40;;;;;;;;;;4982076;28;20281;-88
2021/01/07 06:03:52;;;;;;;24.37;14.67;;;;;;;;;;4990531;28;20377;-87
2021/01/07 06:06:19;;;;;;;27.57;17.17;;;;;;;;;;4979726;28;20336;-88
2021/01/07 06:08:50;;;;;;;25.60;17.07;;;;;;;;;;4974940;28;20298;-87
2021/01/07 06:11:20;;;;;;;25.20;16.67;;;;;;;;;;4976109;28;20285;-87
2021/01/07 06:13:48;;;;;;;25.13;15.60;;;;;;;;;;4977276;28;20281;-88
2021/01/07 06:16:15;;;;;;;24.80;15.83;;;;;;;;;;4978318;28;20316;-87
2021/01/07 06:18:42;;;;;;;25.43;15.27;;;;;;;;;;4986117;28;20285;-88
2021/01/07 06:21:09;;;;;;;24.10;15.30;;;;;;;;;;4976973;28;20265;-88
2021/01/07 06:23:42;;;;;;;24.60;14.43;;;;;;;;;;4976160;28;20295;-88
2021/01/07 06:26:18;;;;;;;25.77;15.63;;;;;;;;;;4980538;28;20316;-88
2021/01/07 06:28:55;;;;;;;26.27;15.73;;;;;;;;;;4976023;28;20026;-89
2021/01/07 06:31:21;;;;;;;25.50;16.03;;;;;;;;;;4976335;28;20265;-88
2021/01/07 06:33:49;;;;;;;28.37;16.77;;;;;;;;;;4981920;28;20273;-88
2021/01/07 06:36:16;;;;;;;25.83;15.93;;;;;;;;;;4996178;28;20364;-88
2021/01/07 06:38:50;;;;;;;24.73;14.83;;;;;;;;;;4995167;28;20348;-88
2021/01/07 06:41:17;;;;;;;22.17;14.97;;;;;;;;;;4997482;28;20265;-87
2021/01/07 06:43:44;;;;;;;23.33;14.00;;;;;;;;;;4980517;28;20280;-88
2021/01/07 06:46:10;;;;;;;22.57;14.47;;;;;;;;;;4977994;28;20292;-87
2021/01/07 06:48:41;;;;;;;22.53;14.27;;;;;;;;;;4983533;28;20265;-88
2021/01/07 06:51:07;;;;;;;25.57;14.37;;;;;;;;;;4982345;28;20285;-88
2021/01/07 06:53:37;;;;;;;25.97;14.63;;;;;;;;;;4977714;28;20296;-89
2021/01/07 06:56:16;;;;;;;24.63;14.40;;;;;;;;;;4976999;28;20324;-89
2021/01/07 06:58:43;;;;;;;25.37;14.43;;;;;;;;;;4976941;28;20277;-89
2021/01/07 07:01:10;;;;;;;22.47;14.30;;;;;;;;;;4978258;28;20327;-89
2021/01/07 07:03:40;;;;;;;23.03;13.70;;;;;;;;;;4977399;28;20849;-89
2021/01/07 07:06:08;;;;;;;21.80;13.73;;;;;;;;;;4992036;28;20284;-89
2021/01/07 07:08:34;;;;;;;20.30;13.13;;;;;;;;;;4978506;28;20274;-89
2021/01/07 07:11:02;;;;;;;23.53;14.53;;;;;;;;;;4975766;28;20263;-89
2021/01/07 07:13:31;;;;;;;24.87;15.40;;;;;;;;;;4979248;28;20338;-89
2021/01/07 07:16:01;;;;;;;22.97;14.10;;;;;;;;;;4993295;28;20280;-88
2021/01/07 07:18:30;;;;;;;24.87;15.40;;;;;;;;;;4982206;28;20368;-89
2021/01/07 07:20:57;;;;;;;23.43;13.13;;;;;;;;;;4994163;28;20293;-89
2021/01/07 07:23:24;;;;;;;20.60;13.30;;;;;;;;;;4996448;28;20319;-88
2021/01/07 07:25:54;;;;;;;20.67;13.53;;;;;;;;;;4983598;28;20282;-88
2021/01/07 07:28:25;;;;;;;21.60;12.97;;;;;;;;;;4974002;28;20368;-88
2021/01/07 07:30:52;;;;;;;21.60;13.07;;;;;;;;;;4986065;28;20265;-88
2021/01/07 07:33:34;;;;;;;20.60;13.03;;;;;;;;;;4978274;28;20293;-88
2021/01/07 07:36:00;;;;;;;22.03;13.33;;;;;;;;;;4987590;28;20301;-88
2021/01/07 07:38:30;;;;;;;20.60;12.57;;;;;;;;;;4990368;28;20316;-88
2021/01/07 07:41:00;;;;;;;20.17;12.57;;;;;;;;;;4985337;28;20357;-88
2021/01/07 07:43:29;;;;;;;23.57;13.33;;;;;;;;;;4984678;28;20289;-89
2021/01/07 07:45:57;;;;;;;40.77;20.33;;;;;;;;;;4995912;28;20281;-88
2021/01/07 07:48:28;;;;;;;65.07;37.07;;;;;;;;;;5006345;28;20257;-88
2021/01/07 07:51:13;;;;;;;21.60;13.47;;;;;;;;;;5005461;28;20265;-88
2021/01/07 07:53:39;;;;;;;19.73;12.30;;;;;;;;;;4999546;28;20280;-86
2021/01/07 07:56:22;;;;;;;20.00;12.00;;;;;;;;;;4994146;28;20291;-86
2021/01/07 07:58:48;;;;;;;18.67;11.67;;;;;;;;;;4963622;28;20285;-86
2021/01/07 08:01:14;;;;;;;19.83;12.43;;;;;;;;;;4960374;28;20361;-86
2021/01/07 08:03:41;;;;;;;19.33;11.27;;;;;;;;;;4974980;28;20286;-85
2021/01/07 08:06:07;;;;;;;20.63;12.33;;;;;;;;;;4993469;28;20315;-86
2021/01/07 08:08:34;;;;;;;19.93;11.37;;;;;;;;;;5001806;28;20272;-86
2021/01/07 08:11:01;;;;;;;19.30;11.83;;;;;;;;;;4971976;28;20776;-88
2021/01/07 08:13:28;;;;;;;19.53;12.00;;;;;;;;;;4979420;28;20274;-88
2021/01/07 08:15:59;;;;;;;20.53;12.67;;;;;;;;;;4981405;28;20293;-88
2021/01/07 08:18:26;;;;;;;18.97;11.10;;;;;;;;;;4980301;28;20304;-87
2021/01/07 08:20:54;;;;;;;21.03;11.57;;;;;;;;;;4964007;28;20274;-87
2021/01/07 08:23:25;;;;;;;19.40;11.63;;;;;;;;;;4990539;28;20289;-88
2021/01/07 08:25:52;;;;;;;21.50;12.60;;;;;;;;;;4998149;28;20650;-87
2021/01/07 08:28:21;;;;;;;20.17;11.63;;;;;;;;;;4984328;28;20344;-87
2021/01/07 08:30:49;;;;;;;21.80;12.33;;;;;;;;;;4987864;28;20258;-88
2021/01/07 08:33:17;;;;;;;21.77;12.57;;;;;;;;;;4982500;28;20277;-88
2021/01/07 08:35:45;;;;;;;19.20;11.83;;;;;;;;;;4980200;28;20281;-88
2021/01/07 08:38:22;;;;;;;19.97;11.90;;;;;;;;;;4998344;28;20271;-88
2021/01/07 08:40:49;;;;;;;24.97;16.50;;;;;;;;;;4974974;28;20269;-88
2021/01/07 08:43:15;;;;;;;20.37;13.33;;;;;;;;;;4993243;28;20365;-88
2021/01/07 08:45:51;;;;;;;20.03;12.83;;;;;;;;;;4984551;28;20785;-87
2021/01/07 08:48:21;;;;;;;18.23;11.03;;;;;;;;;;4981757;28;20810;-88
2021/01/07 08:50:47;;;;;;;20.00;12.13;;;;;;;;;;4983902;28;20262;-87
2021/01/07 08:53:14;;;;;;;21.40;13.37;;;;;;;;;;4988633;28;20269;-87
2021/01/07 08:55:44;;;;;;;20.77;12.27;;;;;;;;;;5004703;28;20277;-87
2021/01/07 08:58:10;;;;;;;19.67;12.50;;;;;;;;;;5003281;28;20290;-88
2021/01/07 09:00:36;;;;;;;19.93;13.57;;;;;;;;;;4997410;28;20274;-87
2021/01/07 09:03:02;;;;;;;19.43;11.53;;;;;;;;;;4985793;28;20296;-87
2021/01/07 09:05:29;;;;;;;19.83;12.30;;;;;;;;;;5001868;28;20299;-88
2021/01/07 09:08:25;;;;;;;21.23;12.17;;;;;;;;;;4986116;28;20310;-87
2021/01/07 09:10:51;;;;;;;22.27;12.40;;;;;;;;;;4975264;28;20277;-87
2021/01/07 09:13:18;;;;;;;23.00;13.70;;;;;;;;;;4973672;28;20290;-87
2021/01/07 09:15:44;;;;;;;20.43;12.73;;;;;;;;;;5000734;28;20295;-87
2021/01/07 09:18:10;;;;;;;16.67;11.00;;;;;;;;;;4984974;28;20277;-87
2021/01/07 09:20:37;;;;;;;23.43;13.87;;;;;;;;;;5020572;28;20271;-87
2021/01/07 09:23:06;;;;;;;19.17;12.17;;;;;;;;;;4982205;28;20277;-87
2021/01/07 09:25:33;;;;;;;21.20;12.13;;;;;;;;;;4982678;28;20281;-88
2021/01/07 09:27:59;;;;;;;19.60;11.97;;;;;;;;;;5000088;28;20300;-86
2021/01/07 09:30:26;;;;;;;19.67;11.73;;;;;;;;;;4997136;28;20269;-87
2021/01/07 09:32:52;;;;;;;20.93;12.30;;;;;;;;;;4981675;28;20770;-87
2021/01/07 09:35:23;;;;;;;19.80;12.43;;;;;;;;;;4983961;28;20268;-88
2021/01/07 09:37:52;;;;;;;18.27;11.60;;;;;;;;;;4982964;28;20762;-88
2021/01/07 09:43:49;;;;;;;19.08;11.77;;;;;;;;;;4980224;28;20853;-87
2021/01/07 09:46:57;;;;;;;23.07;13.40;;;;;;;;;;4973791;28;20158;-88
2021/01/07 09:49:24;;;;;;;20.53;12.53;;;;;;;;;;5015219;28;20691;-89
2021/01/07 09:51:50;;;;;;;21.00;12.47;;;;;;;;;;5000277;28;20645;-87
2021/01/07 09:54:16;;;;;;;20.23;12.60;;;;;;;;;;4996862;28;20277;-89
2021/01/07 09:56:43;;;;;;;19.07;11.60;;;;;;;;;;4995942;28;20316;-87
2021/01/07 10:12:16;;;;;;;14.80;10.20;;;;;;;;;;4981904;28;20258;-87
2021/01/07 10:24:17;;;;;;;18.97;12.87;;;;;;;;;;4973529;28;20042;-87
2021/01/07 10:26:44;;;;;;;20.73;13.83;;;;;;;;;;4988758;28;20265;-88
2021/01/07 10:29:10;;;;;;;19.23;12.53;;;;;;;;;;4987213;28;20317;-88
2021/01/07 10:31:36;;;;;;;19.87;12.13;;;;;;;;;;4996263;28;20280;-88
2021/01/07 10:34:05;;;;;;;18.63;11.27;;;;;;;;;;5000225;28;20360;-88
2021/01/07 10:36:31;;;;;;;18.77;11.47;;;;;;;;;;4987017;28;20309;-88
2021/01/07 10:38:58;;;;;;;25.70;14.67;;;;;;;;;;4990595;28;20345;-88
2021/01/07 10:41:30;;;;;;;19.07;11.17;;;;;;;;;;5007264;28;20272;-88
2021/01/07 10:44:00;;;;;;;16.50;11.07;;;;;;;;;;4999203;28;20269;-88
2021/01/07 10:46:29;;;;;;;19.80;11.13;;;;;;;;;;4998300;28;20273;-89
2021/01/07 10:48:56;;;;;;;16.40;10.37;;;;;;;;;;4992448;28;20277;-88
2021/01/07 10:51:25;;;;;;;15.47;9.60;;;;;;;;;;4995944;28;20328;-88
2021/01/07 10:54:07;;;;;;;15.10;10.13;;;;;;;;;;4988343;28;20281;-88
2021/01/07 10:56:52;;;;;;;18.20;11.60;;;;;;;;;;4987763;28;20356;-88
2021/01/07 10:59:21;;;;;;;27.97;16.70;;;;;;;;;;4989065;28;20277;-88
2021/01/07 11:02:06;;;;;;;37.73;22.30;;;;;;;;;;4994437;28;20308;-88
2021/01/07 11:07:52;;;;;;;14.52;8.35;;;;;;;;;;5007323;28;20253;-87
2021/01/07 11:10:19;;;;;;;15.75;10.05;;;;;;;;;;4982582;28;20031;-86
2021/01/07 11:16:14;;;;;;;16.77;11.47;;;;;;;;;;4924763;29;20047;-87
2021/01/07 11:18:43;;;;;;;19.20;11.43;;;;;;;;;;4940753;29;20298;-87
2021/01/07 11:24:32;;;;;;;18.87;12.73;;;;;;;;;;4870793;29;20297;-87
2021/01/07 11:27:45;;;;;;;;;;;;;;;;;;;;;
2021/01/07 11:33:33;;;;;;;18.60;11.13;;;;;;;;;;4850674;29;20040;-88
2021/01/07 11:36:08;;;;;;;15.33;10.80;;;;;;;;;;4934931;29;20291;-87
2021/01/07 11:38:42;;;;;;;16.87;10.43;;;;;;;;;;4913637;29;20301;-87
2021/01/07 11:41:23;;;;;;;14.73;10.10;;;;;;;;;;4982277;28;20069;-88
2021/01/07 11:43:56;;;;;;;16.43;10.63;;;;;;;;;;4993510;28;20039;-86
2021/01/07 11:46:22;;;;;;;;;;;;;;;;;;4973896;28;20026;-86
2021/01/07 11:58:17;;;;;;;17.27;9.83;;;;;;;;;;4970554;28;20053;-88
2021/01/07 12:04:15;;;;;;;16.65;11.00;;;;;;;;;;4991604;28;20050;-88
2021/01/07 12:07:03;;;;;;;;;;;;;;;;;;;;;
2021/01/07 12:09:46;;;;;;;18.87;11.23;;;;;;;;;;5007532;28;20045;-88
2021/01/07 12:12:19;;;;;;;25.50;12.37;;;;;;;;;;4983192;28;20128;-87
2021/01/07 12:15:00;;;;;;;20.93;12.53;;;;;;;;;;4999250;28;20026;-88
2021/01/07 12:30:29;;;;;;;15.05;8.88;;;;;;;;;;4846994;29;20052;-89
2021/01/07 12:39:57;;;;;;;18.63;11.97;;;;;;;;;;4940492;29;20046;-88
2021/01/07 12:51:58;;;;;;;;;;;;;;;;;;;;;
2021/01/07 12:57:40;;;;;;;20.53;11.70;;;;;;;;;;4947430;28;20039;-88
2021/01/07 13:03:36;;;;;;;16.83;10.23;;;;;;;;;;4947407;29;20070;-88
2021/01/07 13:06:03;;;;;;;21.70;12.57;;;;;;;;;;4994273;28;20269;-88
2021/01/07 13:09:10;;;;;;;19.93;12.47;;;;;;;;;;4979584;28;20328;-87
2021/01/07 13:11:35;;;;;;;18.30;12.30;;;;;;;;;;4985888;28;20117;-87
2021/01/07 13:14:01;;;;;;;22.40;13.03;;;;;;;;;;4987777;28;20069;-88
2021/01/07 13:16:28;;;;;;;21.13;13.83;;;;;;;;;;4994794;28;20034;-86
2021/01/07 13:18:54;;;;;;;20.27;13.47;;;;;;;;;;4982082;28;20303;-87
2021/01/07 13:21:20;;;;;;;21.33;13.70;;;;;;;;;;4975641;28;20030;-87
2021/01/07 13:24:05;;;;;;;21.33;14.50;;;;;;;;;;4971540;28;20152;-86
2021/01/07 13:32:39;;;;;;;20.23;13.27;;;;;;;;;;5010892;28;20276;-88
2021/01/07 13:38:31;;;;;;;;;;;;;;;;;;4979507;28;20066;-85
2021/01/07 13:41:06;;;;;;;18.73;11.70;;;;;;;;;;4996219;28;19953;-85
2021/01/07 13:43:37;;;;;;;20.03;12.40;;;;;;;;;;4991177;28;20082;-85
2021/01/07 13:46:09;;;;;;;19.27;12.07;;;;;;;;;;4969974;28;20311;-83
2021/01/07 13:52:04;;;;;;;21.60;14.40;;;;;;;;;;4917780;29;20271;-87
2021/01/07 13:54:31;;;;;;;20.23;13.77;;;;;;;;;;4995904;28;20072;-86
2021/01/07 13:57:18;;;;;;;19.73;12.03;;;;;;;;;;4982684;28;20906;-86
2021/01/07 14:02:54;;;;;;;18.33;10.97;;;;;;;;;;4976617;28;20289;-86
2021/01/07 14:14:25;;;;;;;18.90;11.03;;;;;;;;;;4927582;29;19936;-86
2021/01/07 14:16:51;;;;;;;18.33;11.17;;;;;;;;;;4901234;29;20403;-86
2021/01/07 14:19:17;;;;;;;18.33;12.43;;;;;;;;;;4996291;28;20265;-86
2021/01/07 14:21:43;;;;;;;21.63;13.30;;;;;;;;;;4987962;28;20257;-86
2021/01/07 14:24:13;;;;;;;21.30;13.97;;;;;;;;;;4984460;28;20297;-86
2021/01/07 14:26:59;;;;;;;21.63;14.10;;;;;;;;;;4993027;28;20355;-86
2021/01/07 14:29:28;;;;;;;22.80;15.03;;;;;;;;;;4945051;28;20301;-87
2021/01/07 14:31:54;;;;;;;23.57;15.17;;;;;;;;;;4988381;28;20285;-86
2021/01/07 14:34:22;;;;;;;30.80;17.67;;;;;;;;;;4979609;28;20624;-86
2021/01/07 14:36:52;;;;;;;40.33;20.70;;;;;;;;;;4979258;28;20271;-86
2021/01/07 14:39:21;;;;;;;27.53;15.83;;;;;;;;;;4976238;28;20285;-86
2021/01/07 14:41:47;;;;;;;22.97;14.50;;;;;;;;;;4976575;28;20605;-86
2021/01/07 14:44:13;;;;;;;22.73;13.97;;;;;;;;;;4980064;28;20270;-86
2021/01/07 14:46:43;;;;;;;25.90;16.00;;;;;;;;;;4977861;28;20899;-86
2021/01/07 14:49:15;;;;;;;24.87;14.07;;;;;;;;;;4980226;28;20266;-86
2021/01/07 14:51:41;;;;;;;25.63;14.13;;;;;;;;;;4987559;28;20286;-86
2021/01/07 14:54:09;;;;;;;24.53;15.57;;;;;;;;;;4980920;28;20353;-85
2021/01/07 14:56:38;;;;;;;24.67;14.47;;;;;;;;;;4970596;28;20428;-85
2021/01/07 14:59:04;;;;;;;25.73;16.10;;;;;;;;;;4985112;28;20626;-87
2021/01/07 15:01:37;;;;;;;23.30;14.90;;;;;;;;;;4978124;28;20286;-87
2021/01/07 15:04:22;;;;;;;24.53;15.20;;;;;;;;;;4975240;28;20296;-87
2021/01/07 15:06:48;;;;;;;22.47;13.93;;;;;;;;;;4974369;28;20265;-87
2021/01/07 15:09:24;;;;;;;27.03;17.53;;;;;;;;;;4973956;28;20273;-87
2021/01/07 15:11:55;;;;;;;31.83;17.33;;;;;;;;;;4971668;28;20329;-87
2021/01/07 15:14:26;;;;;;;35.30;18.70;;;;;;;;;;4976450;28;20265;-87
2021/01/07 15:17:06;;;;;;;29.07;17.77;;;;;;;;;;4986999;28;20265;-87
2021/01/07 15:19:44;;;;;;;31.77;18.70;;;;;;;;;;4989990;28;20259;-87
2021/01/07 15:22:22;;;;;;;35.37;19.13;;;;;;;;;;4975716;28;20636;-87
2021/01/07 15:25:03;;;;;;;49.70;24.00;;;;;;;;;;4976690;28;21025;-87
2021/01/07 15:27:29;;;;;;;60.07;28.97;;;;;;;;;;4976050;28;20272;-87
2021/01/07 15:29:55;;;;;;;46.43;25.03;;;;;;;;;;4978916;28;20344;-86
2021/01/07 15:32:35;;;;;;;39.30;24.00;;;;;;;;;;4977427;28;20302;-87
2021/01/07 15:35:07;;;;;;;39.40;24.53;;;;;;;;;;4994236;28;20321;-87
2021/01/07 15:37:46;;;;;;;34.23;20.57;;;;;;;;;;4997955;28;20265;-87
2021/01/07 15:40:31;;;;;;;34.90;20.37;;;;;;;;;;5003007;28;20269;-87
2021/01/07 15:42:57;;;;;;;39.43;23.67;;;;;;;;;;5000928;28;20296;-87
2021/01/07 15:45:38;;;;;;;38.73;23.60;;;;;;;;;;4973565;28;20278;-87
2021/01/07 15:48:14;;;;;;;37.20;21.50;;;;;;;;;;4957981;28;20814;-87
2021/01/07 15:50:53;;;;;;;34.60;22.17;;;;;;;;;;4998969;28;20280;-87
2021/01/07 16:05:28;;;;;;;29.30;17.77;;;;;;;;;;4987635;28;20285;-88
2021/01/07 16:08:17;;;;;;;;;;;;;;;;;;;;;
2021/01/07 16:14:32;;;;;;;28.00;16.97;;;;;;;;;;5004961;28;21069;-87
2021/01/07 16:20:25;;;;;;;54.17;30.53;;;;;;;;;;4997454;28;20630;-87
2021/01/07 16:26:00;;;;;;;45.27;26.50;;;;;;;;;;4933893;29;20331;-88
2021/01/07 16:28:26;;;;;;;42.37;25.00;;;;;;;;;;4935730;28;20724;-86
2021/01/07 16:30:55;;;;;;;38.27;23.03;;;;;;;;;;4994244;28;20261;-86
2021/01/07 16:33:21;;;;;;;40.57;24.27;;;;;;;;;;4995274;28;20352;-86
2021/01/07 16:36:20;;;;;;;50.20;26.57;;;;;;;;;;4994502;28;20265;-88
2021/01/07 16:38:49;;;;;;;57.60;32.37;;;;;;;;;;4984498;28;20285;-87
2021/01/07 16:41:15;;;;;;;49.73;29.83;;;;;;;;;;4992980;28;21028;-87
2021/01/07 16:43:45;;;;;;;43.70;26.30;;;;;;;;;;4970446;28;20293;-87
2021/01/07 16:46:32;;;;;;;;;;;;;;;;;;;;;
2021/01/07 16:49:08;;;;;;;49.27;28.10;;;;;;;;;;4999630;28;20276;-87
2021/01/07 16:52:08;;;;;;;50.03;29.67;;;;;;;;;;4993720;28;20352;-87
2021/01/07 16:54:44;;;;;;;53.23;30.10;;;;;;;;;;4987525;28;20808;-88
2021/01/07 17:00:23;;;;;;;40.65;23.95;;;;;;;;;;5004221;28;20618;-88
2021/01/07 17:02:50;;;;;;;53.07;30.27;;;;;;;;;;4976388;28;20031;-88
2021/01/07 17:05:22;;;;;;;56.23;31.07;;;;;;;;;;4979025;28;20284;-88
2021/01/07 17:07:51;;;;;;;59.03;28.60;;;;;;;;;;4985793;28;20269;-89
2021/01/07 17:10:20;;;;;;;50.37;28.27;;;;;;;;;;4971744;28;20305;-89
2021/01/07 17:12:50;;;;;;;57.23;32.50;;;;;;;;;;4978684;28;20281;-89
2021/01/07 17:15:17;;;;;;;61.20;31.57;;;;;;;;;;4991548;28;20284;-88
2021/01/07 17:17:43;;;;;;;73.50;39.73;;;;;;;;;;4985231;28;20277;-89
2021/01/07 17:20:09;;;;;;;57.20;32.90;;;;;;;;;;4983335;28;20288;-88
2021/01/07 17:22:36;;;;;;;52.77;30.60;;;;;;;;;;4983845;28;20351;-88
2021/01/07 17:25:02;;;;;;;55.30;31.93;;;;;;;;;;4990035;28;20281;-88
2021/01/07 17:27:29;;;;;;;80.37;49.30;;;;;;;;;;4979119;28;20268;-87
2021/01/07 17:30:03;;;;;;;60.23;35.40;;;;;;;;;;4987564;28;20280;-87
2021/01/07 17:32:29;;;;;;;50.47;28.43;;;;;;;;;;4995774;28;20268;-87
2021/01/07 17:34:56;;;;;;;46.77;27.80;;;;;;;;;;4984836;28;20361;-88
2021/01/07 17:37:22;;;;;;;46.90;28.07;;;;;;;;;;4973292;28;20317;-87
2021/01/07 17:39:48;;;;;;;51.40;25.93;;;;;;;;;;4978033;28;20301;-88
2021/01/07 17:42:17;;;;;;;50.67;28.83;;;;;;;;;;4980017;28;20318;-88